Time;durP1;ratioP1;P1;durP2;ratioP2;P2;SDS_P1;SDS_P2;PMS_P1;PMS_P2;Temp;Humidity;BMP_temperature;BMP_pressure;BME280_temperature;BME280_humidity;BME280_pressure;Samples;Min_cycle;Max_cycle;Signal;HPM_P1;HPM_P2
2022/11/09 00:00:04;;;;;;;;;5.00;5.00;;;;;16.59;96.15;100329.78;5100743;27;46047;-77
2022/11/09 00:02:29;;;;;;;;;6.00;4.00;;;;;16.58;95.83;100314.75;5097097;27;47953;-77
2022/11/09 00:04:55;;;;;;;;;3.50;3.50;;;;;16.59;96.01;100324.44;5093643;27;45323;-77
2022/11/09 00:07:20;;;;;;;;;5.00;3.67;;;;;16.55;97.16;100339.34;5096869;27;46655;-77
2022/11/09 00:09:45;;;;;;;;;6.00;5.00;;;;;16.55;96.78;100342.03;5091206;27;45453;-77
2022/11/09 00:12:11;;;;;;;;;9.00;5.00;;;;;16.55;97.17;100344.69;5101438;27;45402;-77
2022/11/09 00:14:37;;;;;;;;;5.33;4.33;;;;;16.43;96.92;100344.63;5097066;27;45374;-77
2022/11/09 00:17:03;;;;;;;;;8.00;6.67;;;;;16.34;97.52;100342.22;5091403;27;45358;-77
2022/11/09 00:19:28;;;;;;;;;5.33;5.00;;;;;16.44;98.12;100340.91;5101635;27;45271;-77
2022/11/09 00:21:53;;;;;;;;;7.67;5.00;;;;;16.49;97.68;100343.75;5101606;27;52528;-78
2022/11/09 00:24:19;;;;;;;;;4.33;2.67;;;;;16.44;97.47;100330.16;5100959;27;45869;-76
2022/11/09 00:26:44;;;;;;;;;4.33;4.00;;;;;16.51;97.69;100337.09;5101719;27;45223;-77
2022/11/09 00:29:09;;;;;;;;;5.00;3.00;;;;;16.58;97.47;100355.00;5096472;27;57916;-77
2022/11/09 00:31:35;;;;;;;;;5.00;5.00;;;;;16.59;97.35;100357.44;5098607;27;46011;-77
2022/11/09 00:34:00;;;;;;;;;5.00;5.00;;;;;16.51;97.97;100345.16;5101783;27;45278;-77
2022/11/09 00:36:27;;;;;;;;;5.00;5.00;;;;;16.62;97.75;100365.06;5097886;27;45441;-77
2022/11/09 00:38:56;;;;;;;;;7.67;6.00;;;;;16.66;97.45;100368.09;5101281;27;45335;-79
2022/11/09 00:41:22;;;;;;;;;4.67;4.00;;;;;16.62;97.90;100361.53;5100018;27;47420;-78
2022/11/09 00:43:48;;;;;;;;;4.00;3.67;;;;;16.66;97.53;100381.50;5099877;27;45416;-76
2022/11/09 00:46:14;;;;;;;;;6.00;4.67;;;;;16.70;98.13;100380.00;5101356;27;45250;-79
2022/11/09 00:48:39;;;;;;;;;5.67;4.67;;;;;16.67;99.00;100375.09;5099855;27;46100;-80
2022/11/09 00:51:05;;;;;;;;;3.67;3.33;;;;;16.67;99.32;100367.03;5099950;27;47106;-81
2022/11/09 00:53:31;;;;;;;;;6.00;5.00;;;;;16.61;100.00;100347.28;5101062;27;45805;-82
2022/11/09 00:56:10;;;;;;;;;4.00;3.33;;;;;16.59;100.00;100346.72;5101613;27;45376;-82
2022/11/09 00:58:37;;;;;;;;;4.67;4.67;;;;;16.58;100.00;100339.69;5101213;27;45341;-82
2022/11/09 01:01:11;;;;;;;;;2.67;2.67;;;;;16.60;100.00;100332.25;5100002;27;47608;-80
2022/11/09 01:03:36;;;;;;;;;5.67;4.33;;;;;16.56;100.00;100343.66;5099657;27;45263;-82
2022/11/09 01:06:02;;;;;;;;;3.67;3.00;;;;;16.50;100.00;100342.69;5096347;27;45383;-81
2022/11/09 01:08:28;;;;;;;;;4.00;3.33;;;;;16.50;100.00;100356.09;5093334;27;45538;-81
2022/11/09 01:10:53;;;;;;;;;3.00;3.00;;;;;16.38;100.00;100337.25;5115381;27;47152;-80
2022/11/09 01:13:18;;;;;;;;;3.00;3.00;;;;;16.38;100.00;100346.09;5100728;27;45332;-79
2022/11/09 01:15:48;;;;;;;;;3.67;2.33;;;;;16.35;100.00;100335.00;5099900;27;45270;-81
2022/11/09 01:18:14;;;;;;;;;3.00;2.00;;;;;16.40;100.00;100345.88;5115406;27;47516;-81
2022/11/09 01:20:42;;;;;;;;;3.33;3.00;;;;;16.38;100.00;100358.69;5099417;27;47587;-81
2022/11/09 01:23:09;;;;;;;;;2.33;2.33;;;;;16.30;100.00;100350.94;5100386;27;45286;-81
2022/11/09 01:25:35;;;;;;;;;6.00;5.67;;;;;16.36;100.00;100358.09;5100901;27;45259;-81
2022/11/09 01:28:01;;;;;;;;;3.33;3.33;;;;;16.32;100.00;100354.22;5099443;27;45939;-81
2022/11/09 01:30:26;;;;;;;;;3.33;3.00;;;;;16.24;100.00;100337.38;5100723;27;46235;-80
2022/11/09 01:32:52;;;;;;;;;3.67;3.67;;;;;16.33;100.00;100355.84;5100774;27;45333;-81
2022/11/09 01:35:18;;;;;;;;;2.00;1.33;;;;;16.24;100.00;100336.56;5116350;27;45411;-81
2022/11/09 01:37:43;;;;;;;;;2.00;2.00;;;;;16.34;100.00;100360.19;5099582;27;45424;-81
2022/11/09 01:40:09;;;;;;;;;4.67;3.00;;;;;16.26;100.00;100346.00;5113865;27;47240;-79
2022/11/09 01:42:36;;;;;;;;;1.00;1.00;;;;;16.33;100.00;100362.03;5096084;27;45703;-80
2022/11/09 01:45:16;;;;;;;;;3.33;3.33;;;;;16.28;100.00;100372.59;5096337;27;45341;-80
2022/11/09 01:47:44;;;;;;;;;3.67;3.33;;;;;16.15;100.00;100352.13;5100428;27;45607;-80
2022/11/09 01:50:11;;;;;;;;;2.33;2.00;;;;;16.07;100.00;100349.72;5100308;27;45377;-80
2022/11/09 01:52:42;;;;;;;;;6.00;3.00;;;;;16.02;100.00;100358.44;5095703;27;45389;-80
2022/11/09 01:55:14;;;;;;;;;3.00;3.00;;;;;15.96;100.00;100357.44;5095115;27;45387;-80
2022/11/09 01:57:53;;;;;;;;;2.33;2.33;;;;;15.93;100.00;100357.03;5103619;27;47124;-80
2022/11/09 02:00:18;;;;;;;;;3.00;3.00;;;;;15.94;100.00;100354.13;5100208;27;45441;-80
2022/11/09 02:02:51;;;;;;;;;5.33;3.00;;;;;15.87;100.00;100356.84;5103310;27;45786;-79
2022/11/09 02:05:20;;;;;;;;;3.00;3.00;;;;;15.90;100.00;100369.00;5100112;27;45287;-79
2022/11/09 02:07:46;;;;;;;;;4.00;2.67;;;;;15.84;100.00;100377.91;5100141;27;45408;-79
2022/11/09 02:10:14;;;;;;;;;2.33;2.33;;;;;15.82;100.00;100394.22;5108066;27;47255;-79
2022/11/09 02:12:40;;;;;;;;;2.67;2.67;;;;;15.72;100.00;100391.19;5098631;27;45328;-80
2022/11/09 02:15:09;;;;;;;;;3.00;2.00;;;;;15.68;100.00;100387.31;5100228;27;45233;-79
2022/11/09 02:17:35;;;;;;;;;3.00;2.33;;;;;15.62;100.00;100383.63;5098691;27;46162;-79
2022/11/09 02:20:02;;;;;;;;;1.33;1.33;;;;;15.63;100.00;100391.44;5099714;27;45691;-79
2022/11/09 02:22:27;;;;;;;;;3.00;3.00;;;;;15.64;100.00;100405.66;5099775;27;45258;-79
2022/11/09 02:24:53;;;;;;;;;1.33;1.33;;;;;15.53;100.00;100385.75;5099984;27;45193;-79
2022/11/09 02:27:20;;;;;;;;;6.33;3.33;;;;;15.58;100.00;100395.81;5099725;27;45342;-79
2022/11/09 02:29:47;;;;;;;;;3.00;1.33;;;;;15.58;100.00;100398.50;5097389;27;48006;-79
2022/11/09 02:32:23;;;;;;;;;1.33;1.33;;;;;15.58;100.00;100393.13;5099915;27;45447;-81
2022/11/09 02:34:48;;;;;;;;;1.00;1.00;;;;;15.52;100.00;100398.34;5099916;27;45387;-79
2022/11/09 02:37:33;;;;;;;;;0.67;0.00;;;;;15.52;100.00;100406.38;5099614;27;45388;-79
2022/11/09 02:40:01;;;;;;;;;2.00;2.00;;;;;15.50;100.00;100391.53;5099364;27;46745;-78
2022/11/09 02:42:27;;;;;;;;;0.33;0.33;;;;;15.45;100.00;100386.84;5099795;27;45324;-79
2022/11/09 02:44:56;;;;;;;;;2.67;2.00;;;;;15.47;100.00;100406.19;5099858;27;45229;-79
2022/11/09 02:47:22;;;;;;;;;1.67;1.67;;;;;15.39;100.00;100395.75;5102544;27;46172;-79
2022/11/09 02:49:47;;;;;;;;;0.00;0.00;;;;;15.38;100.00;100402.94;5103385;27;45694;-78
2022/11/09 02:52:12;;;;;;;;;1.33;1.33;;;;;15.36;100.00;100396.97;5117730;27;45406;-79
2022/11/09 02:54:38;;;;;;;;;1.67;1.00;;;;;15.31;100.00;100388.78;5102092;27;45350;-78
2022/11/09 02:57:03;;;;;;;;;0.00;0.00;;;;;15.27;100.00;100383.00;5115698;27;45528;-79
2022/11/09 02:59:28;;;;;;;;;1.00;0.00;;;;;15.36;100.00;100409.56;5103083;27;46299;-78
2022/11/09 03:01:54;;;;;;;;;1.00;0.67;;;;;15.28;100.00;100402.59;5103709;27;45277;-78
2022/11/09 03:04:19;;;;;;;;;0.00;0.00;;;;;15.33;100.00;100413.50;5103157;27;45522;-78
2022/11/09 03:06:44;;;;;;;;;0.33;0.33;;;;;15.25;100.00;100401.16;5103083;27;45747;-79
2022/11/09 03:09:11;;;;;;;;;0.67;0.00;;;;;15.31;100.00;100420.06;5102619;27;45349;-78
2022/11/09 03:11:38;;;;;;;;;0.67;0.00;;;;;15.28;100.00;100415.97;5102960;27;45363;-78
2022/11/09 03:14:04;;;;;;;;;0.33;0.33;;;;;15.22;100.00;100411.47;5102909;27;45239;-79
2022/11/09 03:16:29;;;;;;;;;4.00;2.67;;;;;15.22;100.00;100423.00;5115046;27;47407;-79
2022/11/09 03:18:56;;;;;;;;;0.00;0.00;;;;;15.20;100.00;100421.59;5093614;27;45366;-78
2022/11/09 03:21:22;;;;;;;;;1.00;1.00;;;;;15.18;100.00;100413.75;5102683;27;45250;-79
2022/11/09 03:23:48;;;;;;;;;0.00;0.00;;;;;15.19;100.00;100420.75;5102686;27;45332;-78
2022/11/09 03:26:14;;;;;;;;;0.00;0.00;;;;;15.15;100.00;100411.50;5102665;27;45311;-78
2022/11/09 03:28:40;;;;;;;;;0.33;0.33;;;;;15.16;100.00;100426.53;5102620;27;45428;-78
2022/11/09 03:31:07;;;;;;;;;1.00;1.00;;;;;15.12;100.00;100411.94;5101400;27;45339;-78
2022/11/09 03:33:32;;;;;;;;;1.33;1.33;;;;;15.09;100.00;100415.84;5101274;27;45516;-78
2022/11/09 03:35:57;;;;;;;;;0.00;0.00;;;;;15.10;100.00;100414.00;5102462;27;45433;-78
2022/11/09 03:38:23;;;;;;;;;1.00;1.00;;;;;15.10;100.00;100424.69;5102161;27;45340;-78
2022/11/09 03:40:48;;;;;;;;;0.00;0.00;;;;;15.04;100.00;100421.03;5102508;27;45315;-78
2022/11/09 03:43:13;;;;;;;;;1.00;0.67;;;;;15.01;100.00;100427.63;5098793;27;45353;-79
2022/11/09 03:45:39;;;;;;;;;2.67;1.33;;;;;15.02;100.00;100423.06;5102477;27;45347;-78
2022/11/09 03:48:04;;;;;;;;;0.00;0.00;;;;;15.02;100.00;100431.09;5101233;27;45927;-80
2022/11/09 03:50:31;;;;;;;;;0.00;0.00;;;;;15.04;100.00;100441.59;5102448;27;45275;-78
2022/11/09 03:52:58;;;;;;;;;1.00;1.00;;;;;15.05;100.00;100443.25;5102487;27;45247;-78
2022/11/09 03:55:24;;;;;;;;;0.00;0.00;;;;;15.07;100.00;100455.38;5101934;27;45341;-78
2022/11/09 03:57:49;;;;;;;;;0.33;0.00;;;;;14.98;100.00;100437.91;5102180;27;45441;-78
2022/11/09 04:00:18;;;;;;;;;0.67;0.67;;;;;15.05;100.00;100462.78;5102751;27;45676;-78
2022/11/09 04:02:43;;;;;;;;;1.00;0.00;;;;;14.97;100.00;100457.69;5086882;27;45365;-78
2022/11/09 04:05:09;;;;;;;;;2.00;2.00;;;;;14.90;100.00;100447.00;5102006;27;45364;-78
2022/11/09 04:07:34;;;;;;;;;1.00;1.00;;;;;15.00;100.00;100462.63;5101810;27;45260;-78
2022/11/09 04:10:00;;;;;;;;;1.00;0.67;;;;;14.93;100.00;100451.91;5101956;27;45287;-77
2022/11/09 04:12:25;;;;;;;;;1.00;1.00;;;;;14.98;100.00;100462.00;5099198;27;45352;-77
2022/11/09 04:14:51;;;;;;;;;1.33;1.33;;;;;14.92;100.00;100460.16;5101881;27;45290;-77
2022/11/09 04:17:16;;;;;;;;;2.67;1.00;;;;;14.87;100.00;100464.28;5101906;27;46055;-78
2022/11/09 04:19:41;;;;;;;;;2.00;1.00;;;;;14.94;100.00;100468.81;5101918;27;45258;-78
2022/11/09 04:22:07;;;;;;;;;1.00;1.00;;;;;14.88;100.00;100476.63;5101893;27;45251;-78
2022/11/09 04:24:32;;;;;;;;;1.00;0.00;;;;;14.87;100.00;100479.50;5100076;27;46180;-78
2022/11/09 04:26:58;;;;;;;;;0.00;0.00;;;;;14.90;100.00;100481.78;5101614;27;46858;-78
2022/11/09 04:29:23;;;;;;;;;1.67;1.00;;;;;14.85;100.00;100486.94;5102191;27;45360;-78
2022/11/09 04:31:49;;;;;;;;;1.00;1.00;;;;;14.86;100.00;100494.75;5116824;27;45447;-78
2022/11/09 04:34:15;;;;;;;;;1.67;1.00;;;;;14.77;100.00;100494.13;5101682;27;45787;-78
2022/11/09 04:36:41;;;;;;;;;2.33;2.00;;;;;14.73;100.00;100489.41;5101257;27;46587;-78
2022/11/09 04:39:06;;;;;;;;;1.33;1.33;;;;;14.64;100.00;100481.56;5101306;27;45242;-78
2022/11/09 04:41:32;;;;;;;;;2.00;2.00;;;;;14.60;100.00;100495.56;5101402;27;45477;-77
2022/11/09 04:43:57;;;;;;;;;2.33;2.33;;;;;14.52;100.00;100489.41;5101769;27;45318;-78
2022/11/09 04:46:23;;;;;;;;;2.67;2.00;;;;;14.59;100.00;100504.63;5096587;27;47253;-78
2022/11/09 04:48:48;;;;;;;;;1.33;1.00;;;;;14.56;100.00;100497.03;5100312;27;45345;-78
2022/11/09 04:51:14;;;;;;;;;2.00;2.00;;;;;14.49;100.00;100508.53;5101530;27;45385;-78
2022/11/09 04:53:39;;;;;;;;;1.33;1.33;;;;;14.49;100.00;100495.16;5101018;27;45295;-78
2022/11/09 04:56:05;;;;;;;;;1.00;1.00;;;;;14.54;100.00;100513.28;5096524;27;47392;-78
2022/11/09 04:58:31;;;;;;;;;3.67;2.33;;;;;14.37;100.00;100499.50;5096077;27;45657;-78
2022/11/09 05:01:05;;;;;;;;;3.33;1.33;;;;;14.46;100.00;100508.16;5101155;27;45483;-78
2022/11/09 05:03:31;;;;;;;;;1.67;1.33;;;;;14.42;100.00;100496.22;5101351;27;45651;-78
2022/11/09 05:05:56;;;;;;;;;2.00;1.33;;;;;14.49;100.00;100511.22;5100926;27;45342;-78
2022/11/09 05:08:22;;;;;;;;;1.33;1.33;;;;;14.46;100.00;100503.59;5096128;27;45650;-78
2022/11/09 05:10:47;;;;;;;;;1.33;1.33;;;;;14.44;100.00;100505.69;5098904;27;45277;-78
2022/11/09 05:13:13;;;;;;;;;3.00;3.00;;;;;14.51;100.00;100519.03;5101065;27;45458;-78
2022/11/09 05:15:39;;;;;;;;;2.33;2.33;;;;;14.50;100.00;100510.19;5100900;27;45396;-78
2022/11/09 05:18:05;;;;;;;;;1.67;1.33;;;;;14.47;100.00;100513.28;5114626;27;45350;-78
2022/11/09 05:20:31;;;;;;;;;3.00;1.67;;;;;14.43;100.00;100512.06;5099815;27;45357;-78
2022/11/09 05:25:41;;;;;;;;;2.33;2.33;;;;;14.45;100.00;100504.63;5100753;27;45798;-78
2022/11/09 05:28:07;;;;;;;;;2.33;2.33;;;;;14.50;100.00;100504.84;5100628;27;45320;-78
2022/11/09 05:30:32;;;;;;;;;3.33;3.33;;;;;14.58;100.00;100516.38;5101230;27;45352;-78
2022/11/09 05:32:57;;;;;;;;;1.00;1.00;;;;;14.54;100.00;100507.13;5110939;27;45911;-78
2022/11/09 05:35:23;;;;;;;;;2.00;1.67;;;;;14.50;100.00;100507.53;5100617;27;50867;-78
2022/11/09 05:37:49;;;;;;;;;2.33;2.33;;;;;14.59;100.00;100515.34;5100598;27;46635;-78
2022/11/09 05:40:16;;;;;;;;;4.33;1.67;;;;;14.60;100.00;100515.13;5100500;27;45352;-78
2022/11/09 05:42:41;;;;;;;;;2.00;2.00;;;;;14.59;100.00;100510.81;5100567;27;45342;-78
2022/11/09 05:45:09;;;;;;;;;2.67;0.67;;;;;14.58;100.00;100513.69;5100284;27;46204;-79
2022/11/09 05:47:38;;;;;;;;;4.67;2.33;;;;;14.59;100.00;100518.00;5095847;27;45239;-79
2022/11/09 05:50:05;;;;;;;;;2.33;2.33;;;;;14.58;100.00;100513.69;5095765;27;45559;-78
2022/11/09 05:52:31;;;;;;;;;1.00;1.00;;;;;14.62;100.00;100517.59;5095554;27;45939;-79
2022/11/09 05:54:56;;;;;;;;;1.67;1.67;;;;;14.57;100.00;100523.56;5105909;27;48329;-78
2022/11/09 05:57:22;;;;;;;;;2.67;2.00;;;;;14.56;100.00;100523.75;5099787;27;45384;-79
2022/11/09 05:59:47;;;;;;;;;0.67;0.33;;;;;14.56;100.00;100539.81;5100808;27;45239;-78
2022/11/09 06:02:12;;;;;;;;;1.33;1.33;;;;;14.44;100.00;100526.22;5100232;27;45550;-79
2022/11/09 06:04:38;;;;;;;;;3.33;2.33;;;;;14.43;100.00;100527.28;5105222;27;46970;-78
2022/11/09 06:07:03;;;;;;;;;1.33;1.33;;;;;14.37;100.00;100534.25;5099839;27;50593;-78
2022/11/09 06:09:28;;;;;;;;;2.67;2.67;;;;;14.35;100.00;100538.97;5100172;27;45281;-79
2022/11/09 06:11:54;;;;;;;;;2.33;2.33;;;;;14.31;100.00;100529.72;5099906;27;45243;-78
2022/11/09 06:14:19;;;;;;;;;1.67;1.67;;;;;14.26;100.00;100531.16;5099739;27;45466;-78
2022/11/09 06:16:44;;;;;;;;;4.00;2.33;;;;;14.24;100.00;100537.72;5100145;27;45475;-78
2022/11/09 06:19:10;;;;;;;;;2.67;1.67;;;;;14.19;100.00;100532.97;5100297;27;45340;-79
2022/11/09 06:21:35;;;;;;;;;2.33;2.33;;;;;14.13;100.00;100529.28;5114574;27;46472;-78
2022/11/09 06:24:00;;;;;;;;;1.33;1.33;;;;;14.15;100.00;100539.78;5099028;27;46208;-78
2022/11/09 06:26:26;;;;;;;;;2.67;2.33;;;;;14.10;100.00;100537.69;5099745;27;45335;-78
2022/11/09 06:28:51;;;;;;;;;5.00;2.33;;;;;14.21;100.00;100546.97;5100035;27;45429;-78
2022/11/09 06:31:16;;;;;;;;;1.00;1.00;;;;;14.13;100.00;100523.13;5099555;27;48583;-79
2022/11/09 06:33:42;;;;;;;;;3.33;2.33;;;;;14.16;100.00;100537.94;5099983;27;45364;-78
2022/11/09 06:36:09;;;;;;;;;2.67;1.67;;;;;14.12;100.00;100542.84;5099790;27;45336;-79
2022/11/09 06:38:34;;;;;;;;;2.33;1.33;;;;;14.07;100.00;100535.44;5094992;27;45472;-79
2022/11/09 06:41:00;;;;;;;;;3.33;3.33;;;;;14.05;100.00;100542.84;5099516;27;45215;-79
2022/11/09 06:43:26;;;;;;;;;3.00;2.00;;;;;14.05;100.00;100545.53;5094941;27;47123;-79
2022/11/09 06:45:52;;;;;;;;;5.00;4.00;;;;;14.06;100.00;100551.66;5109807;27;45444;-79
2022/11/09 06:48:17;;;;;;;;;3.00;2.00;;;;;14.04;100.00;100545.72;5103273;27;45530;-79
2022/11/09 06:50:43;;;;;;;;;3.00;3.00;;;;;14.13;100.00;100574.72;5099473;27;45486;-79
2022/11/09 06:53:12;;;;;;;;;4.00;3.00;;;;;14.16;100.00;100572.69;5079970;27;49367;-80
2022/11/09 06:55:38;;;;;;;;;2.33;2.33;;;;;14.08;100.00;100563.00;5091744;27;45377;-79
2022/11/09 06:58:08;;;;;;;;;4.00;2.67;;;;;14.18;100.00;100587.47;5089094;27;45374;-79
2022/11/09 07:00:34;;;;;;;;;2.67;2.33;;;;;14.20;100.00;100587.28;5082502;27;47172;-79
2022/11/09 07:03:00;;;;;;;;;6.33;6.00;;;;;14.20;100.00;100581.94;5079086;27;45388;-79
2022/11/09 07:05:25;;;;;;;;;3.00;2.67;;;;;14.20;100.00;100582.75;5088092;27;45370;-79
2022/11/09 07:07:50;;;;;;;;;5.67;3.67;;;;;14.20;100.00;100580.09;5109875;27;45247;-79
2022/11/09 07:10:16;;;;;;;;;2.33;1.33;;;;;14.25;100.00;100590.19;5099145;27;45673;-79
2022/11/09 07:12:41;;;;;;;;;2.67;2.33;;;;;14.29;100.00;100601.28;5097776;27;47931;-79
2022/11/09 07:15:07;;;;;;;;;2.67;2.67;;;;;14.24;100.00;100602.72;5099391;27;45480;-79
2022/11/09 07:17:33;;;;;;;;;4.00;3.67;;;;;14.29;100.00;100604.78;5108759;27;45470;-79
2022/11/09 07:19:59;;;;;;;;;3.33;2.67;;;;;14.24;100.00;100594.69;5099107;27;45570;-78
2022/11/09 07:22:28;;;;;;;;;4.67;4.00;;;;;14.25;100.00;100592.84;5100517;27;45299;-80
2022/11/09 07:24:54;;;;;;;;;7.00;4.00;;;;;14.17;100.00;100593.84;5100012;27;45431;-78
2022/11/09 07:27:20;;;;;;;;;4.67;3.00;;;;;14.19;100.00;100605.16;5099878;27;45468;-77
2022/11/09 07:29:45;;;;;;;;;4.33;4.00;;;;;14.23;100.00;100602.91;5104065;27;45390;-77
2022/11/09 07:32:10;;;;;;;;;4.33;4.33;;;;;14.28;100.00;100616.50;5094468;27;47923;-77
2022/11/09 07:34:36;;;;;;;;;3.33;3.33;;;;;14.32;100.00;100623.09;5099358;27;45410;-76
2022/11/09 07:37:01;;;;;;;;;4.67;3.00;;;;;14.32;100.00;100611.56;5110584;27;45510;-77
2022/11/09 07:39:26;;;;;;;;;3.67;3.67;;;;;14.42;100.00;100627.22;5119429;27;46269;-77
2022/11/09 07:41:52;;;;;;;;;4.00;3.33;;;;;14.50;100.00;100632.38;5107547;27;46125;-76
2022/11/09 07:44:17;;;;;;;;;6.00;6.00;;;;;14.51;100.00;100623.31;5101823;27;45343;-76
2022/11/09 07:46:46;;;;;;;;;4.67;3.33;;;;;14.46;100.00;100629.28;5102693;27;45337;-77
2022/11/09 07:49:12;;;;;;;;;5.00;3.67;;;;;14.56;100.00;100636.09;5125314;27;45760;-76
2022/11/09 07:51:38;;;;;;;;;4.00;4.00;;;;;14.62;100.00;100646.81;5098513;27;47544;-76
2022/11/09 07:54:04;;;;;;;;;2.67;2.67;;;;;14.63;100.00;100640.41;5082988;27;45370;-76
2022/11/09 07:56:29;;;;;;;;;5.33;4.67;;;;;14.60;100.00;100631.97;5103643;27;45288;-77
2022/11/09 07:58:54;;;;;;;;;4.00;4.00;;;;;14.68;100.00;100633.63;5102962;27;46774;-77
2022/11/09 08:01:20;;;;;;;;;2.00;2.00;;;;;14.77;100.00;100635.91;5118449;27;45443;-76
2022/11/09 08:03:45;;;;;;;;;4.00;4.00;;;;;14.76;100.00;100628.91;5133151;27;45327;-78
2022/11/09 08:06:10;;;;;;;;;2.33;2.33;;;;;14.78;100.00;100626.06;5107820;27;45445;-78
2022/11/09 08:08:36;;;;;;;;;5.33;4.67;;;;;14.81;100.00;100636.34;5105726;27;45506;-77
2022/11/09 08:11:01;;;;;;;;;4.00;4.00;;;;;14.83;100.00;100645.00;5114009;27;48171;-78
2022/11/09 08:13:26;;;;;;;;;1.33;1.00;;;;;14.90;100.00;100653.00;5104034;27;46927;-75
2022/11/09 08:15:52;;;;;;;;;4.00;2.67;;;;;14.86;100.00;100649.09;5087413;27;45308;-79
2022/11/09 08:18:20;;;;;;;;;3.67;2.33;;;;;14.91;100.00;100651.19;5087764;27;45254;-76
2022/11/09 08:20:45;;;;;;;;;4.33;3.67;;;;;15.00;100.00;100661.44;5088995;27;45348;-76
2022/11/09 08:23:12;;;;;;;;;5.33;4.00;;;;;15.02;100.00;100654.06;5097782;27;45441;-76
2022/11/09 08:25:38;;;;;;;;;2.67;2.00;;;;;15.04;100.00;100661.88;5108771;27;45682;-77
2022/11/09 08:28:03;;;;;;;;;4.00;3.00;;;;;15.09;100.00;100675.44;5091107;27;46467;-76
2022/11/09 08:30:29;;;;;;;;;4.67;4.33;;;;;15.09;100.00;100674.66;5100106;27;45468;-76
2022/11/09 08:32:54;;;;;;;;;3.67;3.67;;;;;15.15;100.00;100669.28;5102867;27;45798;-76
2022/11/09 08:35:22;;;;;;;;;5.00;3.67;;;;;15.23;100.00;100675.44;5114934;27;46005;-77
2022/11/09 08:37:50;;;;;;;;;4.00;2.67;;;;;15.24;100.00;100669.09;5111533;27;45321;-74
2022/11/09 08:40:18;;;;;;;;;4.33;3.67;;;;;15.32;100.00;100679.56;5109517;27;45350;-74
2022/11/09 08:42:44;;;;;;;;;4.00;3.00;;;;;15.37;100.00;100682.47;5111492;27;45312;-75
2022/11/09 08:45:11;;;;;;;;;2.00;2.00;;;;;15.40;100.00;100686.56;5114103;27;45254;-75
2022/11/09 08:47:37;;;;;;;;;6.00;4.33;;;;;15.36;100.00;100677.31;5095626;27;45468;-75
2022/11/09 08:50:04;;;;;;;;;3.00;3.00;;;;;15.49;100.00;100681.81;5104118;27;46563;-75
2022/11/09 08:52:29;;;;;;;;;4.00;2.00;;;;;15.50;100.00;100676.25;5100615;27;45233;-75
2022/11/09 08:54:55;;;;;;;;;3.67;3.67;;;;;15.55;100.00;100689.03;5120498;27;44821;-76
2022/11/09 08:57:20;;;;;;;;;2.00;1.33;;;;;15.43;100.00;100671.94;5091988;27;47003;-76
2022/11/09 08:59:46;;;;;;;;;4.33;4.33;;;;;15.58;100.00;100696.63;5099988;27;45869;-76
2022/11/09 09:02:12;;;;;;;;;4.67;3.00;;;;;15.62;100.00;100707.75;5101246;27;47992;-76
2022/11/09 09:04:38;;;;;;;;;5.00;3.00;;;;;15.67;100.00;100701.75;5097337;27;44676;-77
2022/11/09 09:07:03;;;;;;;;;6.00;3.00;;;;;15.72;100.00;100710.00;5109265;27;45378;-78
2022/11/09 09:09:28;;;;;;;;;5.67;4.33;;;;;15.75;100.00;100713.06;5101016;27;46225;-79
2022/11/09 09:11:54;;;;;;;;;2.67;2.67;;;;;15.78;100.00;100706.50;5099773;27;45311;-78
2022/11/09 09:14:20;;;;;;;;;2.67;2.67;;;;;15.85;100.00;100709.97;5102468;27;45384;-76
2022/11/09 09:16:45;;;;;;;;;4.00;4.00;;;;;15.99;100.00;100720.69;5101089;27;45410;-77
2022/11/09 09:19:10;;;;;;;;;1.33;1.33;;;;;16.07;100.00;100722.31;5103622;27;47178;-77
2022/11/09 09:21:35;;;;;;;;;2.00;2.00;;;;;16.10;100.00;100724.59;5101141;27;45279;-77
2022/11/09 09:24:01;;;;;;;;;6.00;3.00;;;;;16.19;100.00;100720.59;5100798;27;45280;-79
2022/11/09 09:26:26;;;;;;;;;2.00;2.00;;;;;16.31;100.00;100718.09;5101104;27;45597;-77
2022/11/09 09:28:51;;;;;;;;;4.00;3.00;;;;;16.40;100.00;100737.44;5102486;27;45785;-78
2022/11/09 09:31:17;;;;;;;;;7.67;3.00;;;;;16.40;100.00;100729.38;5101033;27;45320;-76
2022/11/09 09:33:42;;;;;;;;;3.67;2.33;;;;;16.47;100.00;100738.25;5101079;27;45299;-78
2022/11/09 09:36:15;;;;;;;;;4.33;2.00;;;;;16.53;100.00;100739.25;5100890;27;45335;-81
2022/11/09 09:38:41;;;;;;;;;6.67;5.00;;;;;16.58;100.00;100743.97;5100469;27;45354;-79
2022/11/09 09:41:11;;;;;;;;;3.00;2.67;;;;;16.50;100.00;100728.94;5116526;27;45353;-79
2022/11/09 09:43:41;;;;;;;;;2.67;0.00;;;;;16.54;100.00;100732.84;5101016;27;45247;-79
2022/11/09 09:46:49;;;;;;;;;2.00;2.00;;;;;16.65;100.00;100756.28;5099356;27;46433;-78
2022/11/09 09:49:22;;;;;;;;;5.67;3.33;;;;;16.73;100.00;100763.28;5113800;27;48459;-78
2022/11/09 09:52:05;;;;;;;;;2.00;2.00;;;;;16.75;100.00;100758.53;5103644;27;45357;-78
2022/11/09 09:54:38;;;;;;;;;3.00;2.00;;;;;16.77;100.00;100769.84;5105899;27;45395;-77
2022/11/09 09:57:13;;;;;;;;;3.00;2.33;;;;;16.78;100.00;100773.38;5110620;27;45431;-76
2022/11/09 09:59:46;;;;;;;;;2.00;2.00;;;;;16.79;100.00;100767.78;5106375;27;48605;-78
2022/11/09 10:02:17;;;;;;;;;2.67;2.67;;;;;16.88;100.00;100786.34;5112721;27;45240;-78
2022/11/09 10:04:43;;;;;;;;;1.33;1.00;;;;;16.89;100.00;100788.81;5108952;27;45325;-77
2022/11/09 10:07:27;;;;;;;;;4.00;2.67;;;;;16.86;100.00;100786.56;5102796;27;45265;-76
2022/11/09 10:10:11;;;;;;;;;1.67;1.00;;;;;16.94;100.00;100798.88;5112202;27;45452;-75
2022/11/09 10:12:42;;;;;;;;;2.67;2.67;;;;;16.94;100.00;100796.19;5112922;27;45368;-79
2022/11/09 10:15:16;;;;;;;;;3.00;2.33;;;;;16.98;99.82;100799.28;5104030;27;45222;-75
2022/11/09 10:18:37;;;;;;;;;3.00;3.00;;;;;16.98;99.65;100802.81;5116463;27;44777;-76
2022/11/09 10:21:26;;;;;;;;;2.00;2.00;;;;;17.08;99.64;100801.50;5060019;27;47768;-77
2022/11/09 10:23:57;;;;;;;;;3.33;2.00;;;;;17.11;99.61;100803.75;5100630;27;45168;-77
2022/11/09 10:26:35;;;;;;;;;2.00;2.00;;;;;17.19;98.88;100811.56;5111154;27;45354;-78
2022/11/09 10:29:11;;;;;;;;;3.33;2.33;;;;;17.16;97.84;100803.94;5105856;27;46339;-78
2022/11/09 10:31:39;;;;;;;;;5.67;3.00;;;;;17.25;97.73;100807.19;5094865;27;48418;-79
2022/11/09 10:34:22;;;;;;;;;3.33;1.00;;;;;17.33;96.76;100817.66;5102544;27;45635;-79
2022/11/09 10:37:08;;;;;;;;;2.00;2.00;;;;;17.38;96.64;100803.56;5095447;27;45384;-78
2022/11/09 10:39:41;;;;;;;;;2.67;2.67;;;;;17.39;95.91;100794.50;5106321;27;45303;-79
2022/11/09 10:42:10;;;;;;;;;2.33;2.00;;;;;17.44;94.55;100802.72;5102864;27;45350;-78
2022/11/09 10:44:35;;;;;;;;;3.00;2.67;;;;;17.56;94.54;100802.81;5101151;27;45326;-79
2022/11/09 10:47:11;;;;;;;;;2.00;2.00;;;;;17.61;93.55;100812.91;5087268;27;45382;-78
2022/11/09 10:49:38;;;;;;;;;1.33;1.33;;;;;17.63;93.09;100816.22;5101798;27;46155;-78
2022/11/09 10:52:05;;;;;;;;;2.67;1.67;;;;;17.63;92.28;100818.91;5089894;27;45422;-78
2022/11/09 10:54:36;;;;;;;;;2.33;2.00;;;;;17.61;91.27;100813.75;5101889;27;45422;-78
2022/11/09 10:57:13;;;;;;;;;3.67;3.67;;;;;17.62;90.44;100812.69;5101190;27;45458;-79
2022/11/09 10:59:49;;;;;;;;;3.00;3.00;;;;;17.62;90.88;100817.25;5099266;27;45310;-77
2022/11/09 11:02:27;;;;;;;;;2.00;2.00;;;;;17.70;90.41;100824.22;5113182;27;47190;-77
2022/11/09 11:05:05;;;;;;;;;2.33;2.00;;;;;17.73;89.57;100821.91;5099517;27;45345;-77
2022/11/09 11:07:31;;;;;;;;;1.33;1.33;;;;;17.66;88.84;100808.53;5089058;27;45358;-77
2022/11/09 11:10:13;;;;;;;;;3.00;2.00;;;;;17.62;88.74;100803.81;5101717;27;45413;-78
2022/11/09 11:12:39;;;;;;;;;3.67;3.67;;;;;17.68;88.62;100816.38;5113445;27;48370;-78
2022/11/09 11:15:40;;;;;;;;;5.00;5.00;;;;;17.71;89.21;100826.69;5112642;27;45328;-77
2022/11/09 11:18:26;;;;;;;;;6.67;5.00;;;;;17.71;88.67;100833.91;5103594;27;45263;-77
2022/11/09 11:21:19;;;;;;;;;5.33;3.67;;;;;17.65;88.04;100822.19;5102604;27;45271;-77
2022/11/09 11:24:07;;;;;;;;;3.67;3.67;;;;;17.66;88.09;100826.53;5097759;27;48131;-79